Time;durP1;ratioP1;P1;durP2;ratioP2;P2;SDS_P1;SDS_P2;PMS_P1;PMS_P2;Temp;Humidity;BMP_temperature;BMP_pressure;BME280_temperature;BME280_humidity;BME280_pressure;Samples;Min_cycle;Max_cycle;Signal;HPM_P1;HPM_P2
2023/12/30 00:01:34;;;;;;;280.20;10.57;;;;;;;21.22;59.79;98665.72;7293526;19;131535;-37
2023/12/30 00:03:59;;;;;;;191.55;7.30;;;;;;;21.21;59.79;98675.34;7296028;19;131595;-38
2023/12/30 00:06:25;;;;;;;194.05;7.40;;;;;;;21.19;60.06;98669.47;7297080;19;130604;-37
2023/12/30 00:08:50;;;;;;;226.27;8.67;;;;;;;21.21;60.10;98679.75;7294565;19;129788;-36
2023/12/30 00:11:15;;;;;;;223.02;8.23;;;;;;;21.21;60.12;98675.34;7292916;19;129842;-36
2023/12/30 00:13:41;;;;;;;205.90;7.40;;;;;;;21.22;59.61;98676.97;7295870;19;129101;-38
2023/12/30 00:16:06;;;;;;;257.83;9.53;;;;;;;21.21;60.22;98682.38;7291936;19;130205;-38
2023/12/30 00:18:32;;;;;;;233.00;8.93;;;;;;;21.20;60.05;98683.34;7296618;19;131142;-38
2023/12/30 00:20:58;;;;;;;254.70;9.47;;;;;;;21.19;59.93;98687.75;7295201;19;130215;-37
2023/12/30 00:23:23;;;;;;;132.07;5.03;;;;;;;21.18;59.90;98691.34;7294652;19;131826;-37
2023/12/30 00:25:48;;;;;;;248.20;9.65;;;;;;;21.18;59.74;98680.91;7295356;19;130860;-39
2023/12/30 00:28:14;;;;;;;190.98;7.38;;;;;;;21.04;60.28;98668.44;7295480;19;130141;-36
2023/12/30 00:30:39;;;;;;;230.07;8.50;;;;;;;21.17;60.34;98689.69;7294982;19;130172;-36
2023/12/30 00:33:05;;;;;;;190.35;6.88;;;;;;;21.18;60.28;98695.75;7294378;19;130350;-37
2023/12/30 00:35:30;;;;;;;208.23;7.83;;;;;;;21.05;59.95;98670.09;7293473;19;130576;-38
2023/12/30 00:37:56;;;;;;;329.23;12.15;;;;;;;21.17;60.13;98681.84;7292279;19;129048;-37
2023/12/30 00:40:21;;;;;;;196.03;7.47;;;;;;;21.18;59.76;98680.91;7296212;19;130683;-37
2023/12/30 00:42:47;;;;;;;219.50;8.18;;;;;;;21.16;60.35;98680.22;7294972;19;130282;-38
2023/12/30 00:45:12;;;;;;;220.40;8.47;;;;;;;21.01;59.52;98647.84;7294760;19;130281;-37
2023/12/30 00:47:37;;;;;;;248.00;9.23;;;;;;;21.17;60.05;98676.63;7293357;19;129998;-36
2023/12/30 00:50:03;;;;;;;238.60;9.05;;;;;;;21.16;59.93;98664.56;7295732;19;129159;-38
2023/12/30 00:52:29;;;;;;;199.13;7.83;;;;;;;21.14;60.42;98666.50;7294290;19;130167;-35
2023/12/30 00:54:54;;;;;;;249.43;9.35;;;;;;;21.15;60.11;98660.31;7291864;19;133676;-38
2023/12/30 00:57:20;;;;;;;266.52;10.02;;;;;;;21.12;60.29;98654.59;7293141;19;131350;-36
2023/12/30 00:59:45;;;;;;;285.20;10.98;;;;;;;21.15;59.66;98655.09;7294111;19;129692;-38
2023/12/30 01:02:10;;;;;;;213.90;8.17;;;;;;;21.15;59.91;98662.09;7294789;19;130719;-38
2023/12/30 01:04:36;;;;;;;88.80;3.40;;;;;;;21.02;60.05;98633.81;7290739;19;130612;-37
2023/12/30 01:07:01;;;;;;;274.60;10.33;;;;;;;21.14;60.42;98650.03;7294240;19;130551;-38
2023/12/30 01:09:26;;;;;;;210.18;8.02;;;;;;;21.12;59.74;98650.16;7293955;19;129271;-39
2023/12/30 01:11:52;;;;;;;252.18;9.90;;;;;;;21.14;59.79;98642.97;7292757;19;130201;-36
2023/12/30 01:14:17;;;;;;;241.90;8.80;;;;;;;21.13;59.64;98651.81;7293270;19;132722;-37
2023/12/30 01:16:42;;;;;;;226.20;8.33;;;;;;;21.04;60.09;98644.13;7292312;19;132112;-38
2023/12/30 01:19:08;;;;;;;236.32;8.60;;;;;;;21.11;59.92;98663.38;7293715;19;129637;-37
2023/12/30 01:21:33;;;;;;;125.20;4.75;;;;;;;21.14;59.44;98681.38;7292374;19;129379;-37
2023/12/30 01:23:58;;;;;;;249.17;9.23;;;;;;;21.13;59.78;98679.72;7291057;19;129718;-36
2023/12/30 01:26:24;;;;;;;271.00;10.20;;;;;;;20.99;60.12;98669.91;7295562;19;129397;-38
2023/12/30 01:28:49;;;;;;;201.18;7.75;;;;;;;21.14;59.96;98695.25;7295462;19;131616;-38
2023/12/30 01:31:17;;;;;;;198.05;7.25;;;;;;;21.12;59.89;98697.19;7291473;19;129810;-35
2023/12/30 01:33:42;;;;;;;277.75;10.20;;;;;;;21.13;59.52;98698.03;7293614;19;130814;-38
2023/12/30 01:36:08;;;;;;;200.95;7.63;;;;;;;21.13;60.11;98705.88;7294166;19;130150;-38
2023/12/30 01:38:33;;;;;;;200.40;7.57;;;;;;;21.10;59.82;98699.19;7293679;19;130636;-37
2023/12/30 01:41:00;;;;;;;236.55;8.85;;;;;;;21.10;60.06;98701.78;7291927;19;130230;-38
2023/12/30 01:43:29;;;;;;;282.27;10.23;;;;;;;21.12;59.81;98712.88;7291835;19;131541;-38
2023/12/30 01:46:02;;;;;;;226.30;8.63;;;;;;;21.12;60.48;98718.09;7293984;19;132026;-38
2023/12/30 01:48:29;;;;;;;216.18;8.23;;;;;;;21.11;60.29;98711.25;7293730;19;131189;-38
2023/12/30 01:50:57;;;;;;;;;;;;;;;21.11;61.05;98708.63;7292795;19;131417;-38
2023/12/30 01:53:23;;;;;;;232.48;8.68;;;;;;;21.12;59.99;98718.09;7291602;19;130740;-37
2023/12/30 01:55:50;;;;;;;208.17;7.80;;;;;;;21.11;60.19;98715.66;7293148;19;130789;-36
2023/12/30 01:58:17;;;;;;;194.32;7.53;;;;;;;21.09;59.90;98707.97;7293741;19;130004;-34
2023/12/30 02:00:46;;;;;;;199.32;7.55;;;;;;;21.09;59.93;98718.44;7292289;19;131443;-40
2023/12/30 02:03:11;;;;;;;207.57;7.72;;;;;;;21.09;59.68;98718.44;7291402;19;130531;-37
2023/12/30 02:05:38;;;;;;;228.93;8.25;;;;;;;21.09;60.04;98728.88;7294073;19;131057;-38
2023/12/30 02:08:04;;;;;;;259.05;9.48;;;;;;;21.10;59.99;98730.53;7291555;19;129124;-41
2023/12/30 02:10:29;;;;;;;282.70;11.43;;;;;;;21.09;59.73;98743.75;7291592;19;130064;-35
2023/12/30 02:12:54;;;;;;;261.23;9.73;;;;;;;20.98;60.32;98731.78;7292544;19;130758;-36
2023/12/30 02:15:24;;;;;;;245.60;9.10;;;;;;;21.08;60.29;98755.19;7292585;19;130741;-41
2023/12/30 02:17:51;;;;;;;145.82;5.55;;;;;;;21.09;60.18;98752.41;7289879;19;132334;-39
2023/12/30 02:20:17;;;;;;;212.05;7.97;;;;;;;20.94;59.32;98703.50;7291839;19;130667;-38
2023/12/30 02:22:47;;;;;;;268.13;10.10;;;;;;;21.07;60.09;98736.09;7288890;19;131539;-36
2023/12/30 02:25:13;;;;;;;254.27;9.63;;;;;;;21.07;60.31;98751.75;7291331;19;129208;-34
2023/12/30 02:27:38;;;;;;;245.73;9.48;;;;;;;21.08;59.52;98742.09;7291404;19;129490;-38
2023/12/30 02:30:04;;;;;;;213.40;8.18;;;;;;;21.07;60.31;98728.25;7290765;19;129330;-38
2023/12/30 02:32:30;;;;;;;224.93;8.33;;;;;;;21.07;60.15;98725.63;7291090;19;129395;-39
2023/12/30 02:34:55;;;;;;;205.17;7.70;;;;;;;21.07;59.68;98725.63;7290242;19;132193;-37
2023/12/30 02:37:20;;;;;;;227.60;8.70;;;;;;;21.06;59.76;98721.38;7291689;19;131895;-37
2023/12/30 02:39:46;;;;;;;248.27;9.32;;;;;;;21.07;59.87;98724.81;7290931;19;130865;-40
2023/12/30 02:42:11;;;;;;;278.63;10.27;;;;;;;21.07;60.37;98727.41;7290705;19;129176;-37
2023/12/30 02:44:37;;;;;;;142.90;5.20;;;;;;;21.06;60.01;98734.44;7291294;19;129693;-37
2023/12/30 02:47:02;;;;;;;188.60;6.93;;;;;;;21.07;59.96;98725.63;7291494;19;131654;-37
2023/12/30 02:49:32;;;;;;;182.68;6.90;;;;;;;21.04;59.80;98720.69;7292106;19;130749;-38
2023/12/30 02:51:57;;;;;;;274.73;10.55;;;;;;;21.05;60.14;98727.56;7288662;19;130446;-34
2023/12/30 02:54:22;;;;;;;194.95;6.93;;;;;;;21.06;59.76;98723.97;7290473;19;129149;-39
2023/12/30 02:56:48;;;;;;;234.67;8.80;;;;;;;21.05;60.28;98726.75;7290352;19;130576;-38
2023/12/30 02:59:13;;;;;;;237.00;8.90;;;;;;;21.05;60.19;98730.19;7290685;19;131190;-37
2023/12/30 03:01:38;;;;;;;249.27;9.10;;;;;;;21.05;59.77;98722.34;7289326;19;129790;-42
2023/12/30 03:04:04;;;;;;;123.77;5.20;;;;;;;21.03;60.37;98728.69;7289618;19;129637;-41
2023/12/30 03:06:29;;;;;;;246.23;9.43;;;;;;;21.04;60.15;98722.50;7288627;19;129082;-38
2023/12/30 03:08:55;;;;;;;235.83;8.70;;;;;;;20.87;60.33;98700.69;7291360;19;131703;-38
2023/12/30 03:11:20;;;;;;;284.30;10.30;;;;;;;21.03;59.74;98726.06;7291205;19;130270;-39
2023/12/30 03:13:46;;;;;;;106.57;4.10;;;;;;;21.03;59.80;98721.69;7288979;19;130429;-42
2023/12/30 03:16:13;;;;;;;197.02;7.53;;;;;;;21.04;60.33;98736.38;7289570;19;131051;-39
2023/12/30 03:18:39;;;;;;;186.88;6.70;;;;;;;21.02;60.28;98727.91;7291491;19;129851;-35
2023/12/30 03:21:09;;;;;;;277.60;10.38;;;;;;;21.04;60.01;98727.72;7288753;19;130480;-40
2023/12/30 03:23:36;;;;;;;241.25;9.10;;;;;;;21.01;60.09;98725.41;7289937;19;129310;-41
2023/12/30 03:26:01;;;;;;;;;;;;;;;21.04;61.24;98736.38;7291582;19;131101;-40
2023/12/30 03:28:27;;;;;;;132.93;4.85;;;;;;;21.04;59.55;98746.81;7289651;19;129656;-40
2023/12/30 03:30:52;;;;;;;200.07;7.17;;;;;;;21.01;60.21;98736.69;7287316;19;130111;-41
2023/12/30 03:33:18;;;;;;;196.80;7.40;;;;;;;21.02;60.05;98746.19;7286886;19;130170;-38
2023/12/30 03:35:43;;;;;;;217.57;8.07;;;;;;;20.87;59.90;98718.97;7291161;19;129752;-41
2023/12/30 03:38:08;;;;;;;206.00;7.73;;;;;;;21.02;60.06;98733.13;7294468;19;130239;-40
2023/12/30 03:40:34;;;;;;;325.42;12.15;;;;;;;21.02;59.99;98733.13;7296937;19;130698;-38
2023/12/30 03:43:00;;;;;;;236.85;9.10;;;;;;;21.01;60.18;98728.03;7298630;19;133514;-39
2023/12/30 03:45:25;;;;;;;263.40;9.67;;;;;;;20.99;59.80;98737.84;7297400;19;132738;-40
2023/12/30 03:47:52;;;;;;;265.60;9.50;;;;;;;21.00;60.19;98740.28;7291794;19;131225;-39
2023/12/30 03:50:17;;;;;;;211.27;7.68;;;;;;;21.01;59.83;98747.16;7294619;19;130463;-36
2023/12/30 03:52:43;;;;;;;155.45;5.88;;;;;;;21.02;59.61;98751.41;7297230;19;129069;-40
2023/12/30 03:55:08;;;;;;;232.15;8.77;;;;;;;21.01;60.14;98752.38;7297342;19;130738;-39
2023/12/30 03:57:34;;;;;;;310.13;11.53;;;;;;;20.99;60.01;98738.63;7293699;19;130498;-40
2023/12/30 04:00:00;;;;;;;209.18;7.75;;;;;;;21.01;60.07;98749.75;7296869;19;130276;-40
2023/12/30 04:02:25;;;;;;;248.60;9.17;;;;;;;21.01;60.33;98778.50;7296057;19;129566;-42
2023/12/30 04:04:51;;;;;;;218.95;7.88;;;;;;;21.00;60.17;98789.94;7292603;19;129964;-43
2023/12/30 04:07:16;;;;;;;267.60;9.77;;;;;;;21.01;59.76;98781.13;7295033;19;132158;-38
2023/12/30 04:09:41;;;;;;;261.93;9.77;;;;;;;20.86;59.64;98753.91;7295562;19;131492;-39
2023/12/30 04:12:07;;;;;;;232.13;8.98;;;;;;;21.01;60.10;98762.81;7295540;19;131449;-37
2023/12/30 04:14:32;;;;;;;194.20;7.33;;;;;;;20.99;59.78;98777.84;7294234;19;129160;-41
2023/12/30 04:16:58;;;;;;;327.65;11.82;;;;;;;20.98;60.40;98778.81;7293938;19;129214;-40
2023/12/30 04:19:24;;;;;;;222.90;8.13;;;;;;;21.00;59.69;98792.56;7294885;19;131589;-40
2023/12/30 04:21:49;;;;;;;231.50;8.50;;;;;;;21.00;59.57;98792.56;7295515;19;130001;-37
2023/12/30 04:24:15;;;;;;;189.38;6.85;;;;;;;20.86;60.15;98747.88;7294096;19;129201;-37
2023/12/30 04:26:41;;;;;;;174.05;6.30;;;;;;;20.99;59.77;98770.00;7295963;19;131157;-37
2023/12/30 04:29:06;;;;;;;265.60;10.00;;;;;;;20.96;60.02;98762.44;7295320;19;131483;-38
2023/12/30 04:31:32;;;;;;;203.65;7.20;;;;;;;20.99;60.17;98763.97;7293679;19;130243;-39
2023/12/30 04:33:57;;;;;;;213.52;7.78;;;;;;;20.99;60.31;98777.03;7294854;19;129380;-36
2023/12/30 04:36:23;;;;;;;218.00;7.95;;;;;;;20.99;59.75;98784.88;7296197;19;132035;-38
2023/12/30 04:38:48;;;;;;;212.70;7.80;;;;;;;20.99;60.12;98790.91;7294178;19;130338;-38
2023/12/30 04:41:14;;;;;;;246.02;9.40;;;;;;;20.92;60.54;98795.09;7296151;19;131745;-39
2023/12/30 04:43:39;;;;;;;286.53;11.03;;;;;;;20.82;61.27;98798.78;7294215;19;132324;-39
2023/12/30 04:46:04;;;;;;;223.93;8.63;;;;;;;20.82;60.13;98781.31;7295549;19;131799;-39
2023/12/30 04:48:30;;;;;;;199.43;7.45;;;;;;;21.20;60.00;98811.44;7295150;19;129685;-36
2023/12/30 04:50:56;;;;;;;125.97;4.55;;;;;;;21.60;58.90;98812.41;7294411;19;129448;-37
2023/12/30 04:53:21;;;;;;;229.60;8.07;;;;;;;22.02;57.46;98812.38;7293317;19;129187;-37
2023/12/30 04:55:47;;;;;;;247.35;9.15;;;;;;;22.47;56.72;98814.56;7296046;19;130429;-40
2023/12/30 04:58:12;;;;;;;247.57;9.55;;;;;;;22.92;55.40;98814.88;7292177;19;131040;-36
2023/12/30 05:00:38;;;;;;;211.45;8.48;;;;;;;23.17;54.07;98795.47;7293681;19;129537;-37
2023/12/30 05:03:03;;;;;;;230.70;8.27;;;;;;;23.62;53.45;98821.06;7293259;19;129150;-37
2023/12/30 05:05:29;;;;;;;220.93;8.18;;;;;;;23.86;52.92;98832.25;7295246;19;131322;-37
2023/12/30 05:07:54;;;;;;;219.00;8.32;;;;;;;24.01;51.87;98822.69;7292674;19;131079;-41
2023/12/30 05:10:19;;;;;;;156.13;5.72;;;;;;;24.11;51.85;98832.97;7293440;19;129712;-36
2023/12/30 05:12:45;;;;;;;293.58;10.70;;;;;;;24.19;51.28;98831.09;7293508;19;130376;-40
2023/12/30 05:15:13;;;;;;;235.73;8.80;;;;;;;24.26;51.12;98836.47;7293065;19;131916;-34
2023/12/30 05:17:38;;;;;;;292.10;10.98;;;;;;;24.19;51.95;98833.72;7290569;19;130987;-41
2023/12/30 05:20:07;;;;;;;251.47;9.30;;;;;;;24.13;51.43;98838.88;7293236;19;130851;-39
2023/12/30 05:22:33;;;;;;;210.13;7.38;;;;;;;23.94;52.56;98840.09;7293715;19;129317;-41
2023/12/30 05:24:58;;;;;;;201.97;7.60;;;;;;;23.78;52.36;98834.94;7292398;19;130072;-38
2023/12/30 05:27:23;;;;;;;248.17;9.20;;;;;;;23.67;52.91;98845.78;7292919;19;130565;-38
2023/12/30 05:29:49;;;;;;;206.03;7.47;;;;;;;23.47;53.14;98834.06;7289774;19;129937;-37
2023/12/30 05:32:14;;;;;;;285.27;10.50;;;;;;;23.35;54.17;98840.69;7292568;19;128831;-40
2023/12/30 05:34:40;;;;;;;162.50;6.20;;;;;;;23.06;54.35;98824.66;7292787;19;130089;-38
2023/12/30 05:37:05;;;;;;;214.07;8.00;;;;;;;23.00;54.54;98862.03;7292101;19;130751;-38
2023/12/30 05:39:30;;;;;;;268.60;10.00;;;;;;;22.89;54.81;98870.25;7293239;19;130002;-40
2023/12/30 05:41:56;;;;;;;244.40;9.23;;;;;;;22.75;55.62;98870.91;7292370;19;129205;-37
2023/12/30 05:44:21;;;;;;;197.20;7.37;;;;;;;22.60;55.63;98864.69;7291545;19;130150;-36
2023/12/30 05:46:46;;;;;;;173.02;6.57;;;;;;;22.49;56.44;98878.09;7292934;19;130539;-36
2023/12/30 05:49:12;;;;;;;262.93;9.93;;;;;;;22.37;56.62;98874.13;7292136;19;129915;-40
2023/12/30 05:51:42;;;;;;;219.33;8.10;;;;;;;22.25;56.60;98878.03;7293194;19;131027;-36
2023/12/30 05:54:09;;;;;;;180.32;6.82;;;;;;;22.19;56.75;98879.50;7292871;19;133442;-39
2023/12/30 05:56:34;;;;;;;229.70;8.48;;;;;;;22.10;57.70;98898.00;7292219;19;130999;-37
2023/12/30 05:59:00;;;;;;;234.63;8.80;;;;;;;21.98;57.83;98884.38;7290151;19;132062;-38
2023/12/30 06:01:25;;;;;;;230.55;8.50;;;;;;;21.90;57.83;98893.00;7293836;19;129936;-38
2023/12/30 06:03:50;;;;;;;223.70;8.60;;;;;;;21.82;58.13;98889.53;7291296;19;129413;-38
2023/12/30 06:06:16;;;;;;;171.10;6.53;;;;;;;21.76;57.96;98892.75;7290784;19;131087;-37
2023/12/30 06:08:41;;;;;;;250.63;9.03;;;;;;;21.69;58.98;98907.44;7292018;19;129607;-37
2023/12/30 06:11:06;;;;;;;243.55;9.07;;;;;;;21.62;58.80;98896.78;7291682;19;129368;-36
2023/12/30 06:13:34;;;;;;;232.57;8.70;;;;;;;21.56;58.68;98905.25;7290348;19;132746;-36
2023/12/30 06:15:59;;;;;;;128.73;4.80;;;;;;;21.34;58.88;98882.25;7291771;19;130872;-39
2023/12/30 06:18:30;;;;;;;285.52;10.65;;;;;;;21.46;58.80;98908.97;7289982;19;130641;-37
2023/12/30 06:20:56;;;;;;;183.18;6.95;;;;;;;21.24;59.37;98889.38;7293052;19;129511;-37
2023/12/30 06:23:21;;;;;;;231.35;8.68;;;;;;;21.34;59.53;98912.81;7292206;19;131523;-38
2023/12/30 06:25:47;;;;;;;209.07;7.88;;;;;;;21.34;59.75;98928.50;7289816;19;132311;-38
2023/12/30 06:28:12;;;;;;;307.83;11.47;;;;;;;21.29;60.17;98928.13;7286586;19;129287;-37
2023/12/30 06:30:37;;;;;;;188.43;7.68;;;;;;;21.12;60.29;98916.75;7291153;19;130698;-39
2023/12/30 06:33:06;;;;;;;194.50;7.32;;;;;;;21.25;60.67;98943.34;7289467;19;130133;-37
2023/12/30 06:35:34;;;;;;;190.40;6.90;;;;;;;21.26;60.52;98944.13;7291054;19;131691;-36
2023/12/30 06:38:01;;;;;;;249.55;9.00;;;;;;;21.24;60.81;98946.91;7290042;19;129238;-38
2023/12/30 06:40:27;;;;;;;138.68;5.28;;;;;;;21.24;60.86;98933.84;7289871;19;129451;-37
2023/12/30 06:42:52;;;;;;;151.88;5.60;;;;;;;21.25;60.77;98932.88;7291513;19;130213;-39
2023/12/30 06:45:18;;;;;;;263.17;10.13;;;;;;;21.25;60.96;98929.44;7290423;19;130959;-39
2023/12/30 06:47:43;;;;;;;272.73;9.60;;;;;;;21.23;60.74;98932.19;7291321;19;132309;-37
2023/12/30 06:50:11;;;;;;;198.40;7.33;;;;;;;21.22;60.85;98943.59;7292898;19;134056;-43
2023/12/30 06:52:36;;;;;;;231.60;8.43;;;;;;;21.07;61.44;98924.25;7290045;19;130400;-36
2023/12/30 06:55:02;;;;;;;270.77;9.90;;;;;;;21.26;61.07;98949.34;7290234;19;129566;-36
2023/12/30 06:57:27;;;;;;;259.90;9.37;;;;;;;21.23;60.58;98944.44;7289143;19;130437;-38
2023/12/30 06:59:55;;;;;;;163.90;6.18;;;;;;;21.25;60.80;98956.41;7290117;19;129556;-38
2023/12/30 07:02:21;;;;;;;251.88;9.60;;;;;;;21.24;60.38;98957.34;7286041;19;130990;-39
2023/12/30 07:04:46;;;;;;;122.17;4.47;;;;;;;21.26;60.94;98965.03;7287215;19;130768;-43
2023/12/30 07:07:12;;;;;;;198.97;7.27;;;;;;;21.26;61.01;98960.66;7288691;19;129017;-40
2023/12/30 07:09:39;;;;;;;207.13;7.85;;;;;;;21.28;60.78;98969.16;7292445;19;130235;-37
2023/12/30 07:12:04;;;;;;;225.77;8.57;;;;;;;21.26;60.07;98965.88;7294527;19;130231;-39
2023/12/30 07:14:34;;;;;;;221.55;7.90;;;;;;;21.29;60.24;98986.47;7294515;19;129661;-39
2023/12/30 07:16:59;;;;;;;268.13;9.45;;;;;;;21.17;59.78;98966.78;7296088;19;130076;-43
2023/12/30 07:19:25;;;;;;;225.10;8.60;;;;;;;21.31;60.30;99000.22;7296921;19;130767;-37
2023/12/30 07:21:51;;;;;;;275.63;10.35;;;;;;;21.20;60.14;98990.03;7287193;19;131024;-38
2023/12/30 07:24:16;;;;;;;203.67;7.60;;;;;;;21.30;60.53;99003.81;7290543;19;133683;-38
2023/12/30 07:26:41;;;;;;;240.03;8.63;;;;;;;21.30;59.73;99008.22;7295758;19;130270;-38
2023/12/30 07:29:07;;;;;;;215.85;7.82;;;;;;;21.29;59.81;99017.03;7293439;19;131494;-37
2023/12/30 07:31:32;;;;;;;199.10;7.45;;;;;;;21.24;60.35;99016.66;7294502;19;130083;-38
2023/12/30 07:33:57;;;;;;;290.05;10.75;;;;;;;21.25;60.04;99026.16;7287138;19;130292;-37
2023/12/30 07:36:24;;;;;;;205.97;7.73;;;;;;;21.22;60.68;99032.50;7294343;19;129906;-37
2023/12/30 07:38:49;;;;;;;;;;;;;;;21.22;61.14;99032.50;7293619;19;131058;-38
2023/12/30 07:41:15;;;;;;;178.67;6.93;;;;;;;21.18;60.72;99036.41;7293449;19;130857;-38
2023/12/30 07:43:41;;;;;;;388.67;14.30;;;;;;;21.23;60.78;99049.84;7292041;19;130297;-39
2023/12/30 07:46:06;;;;;;;226.33;8.30;;;;;;;21.29;60.52;99054.47;7294112;19;131087;-37
2023/12/30 07:48:31;;;;;;;247.25;9.40;;;;;;;21.09;60.64;99032.06;7293208;19;132239;-38
2023/12/30 07:50:57;;;;;;;216.43;7.93;;;;;;;21.16;60.75;99063.66;7294831;19;130097;-34
2023/12/30 07:53:22;;;;;;;320.23;11.80;;;;;;;21.08;60.59;99061.78;7293953;19;130396;-39
2023/12/30 07:55:48;;;;;;;226.48;8.05;;;;;;;21.01;60.49;99060.75;7297799;19;130954;-40
2023/12/30 07:58:13;;;;;;;214.88;7.90;;;;;;;21.02;60.87;99059.78;7295538;19;130080;-38
2023/12/30 08:00:38;;;;;;;215.35;8.48;;;;;;;20.99;60.97;99052.22;7293326;19;130698;-34
2023/12/30 08:03:04;;;;;;;204.25;7.20;;;;;;;20.97;60.88;99053.31;7293858;19;132021;-37
2023/12/30 08:05:29;;;;;;;234.25;8.95;;;;;;;20.92;61.41;99050.31;7295992;19;129376;-36
2023/12/30 08:07:55;;;;;;;199.75;7.30;;;;;;;20.89;61.58;99061.88;7294955;19;131066;-37
2023/12/30 08:10:20;;;;;;;229.82;8.70;;;;;;;20.86;62.13;99062.19;7293165;19;131309;-40
2023/12/30 08:12:45;;;;;;;247.17;8.93;;;;;;;20.87;61.53;99053.41;7294959;19;129583;-37
2023/12/30 08:15:11;;;;;;;128.23;4.72;;;;;;;20.87;62.04;99063.84;7294976;19;129781;-38
2023/12/30 08:17:36;;;;;;;233.20;8.40;;;;;;;20.86;62.17;99071.84;7292552;19;131023;-38
2023/12/30 08:20:02;;;;;;;258.73;9.60;;;;;;;20.84;61.30;99074.56;7294890;19;130647;-38
2023/12/30 08:22:28;;;;;;;259.30;9.93;;;;;;;20.72;61.50;99055.66;7293842;19;133408;-39
2023/12/30 08:24:54;;;;;;;192.68;7.05;;;;;;;20.87;61.50;99079.53;7292778;19;130500;-37
2023/12/30 08:27:19;;;;;;;282.88;10.85;;;;;;;20.88;61.38;99078.53;7295341;19;131819;-37
2023/12/30 08:29:45;;;;;;;276.73;10.13;;;;;;;20.90;61.04;99089.66;7290628;19;132108;-38
2023/12/30 08:32:10;;;;;;;237.83;8.97;;;;;;;20.80;61.10;99072.41;7295041;19;131073;-42
2023/12/30 08:34:35;;;;;;;222.97;8.43;;;;;;;20.92;61.10;99092.97;7286173;19;130427;-41
2023/12/30 08:37:08;;;;;;;235.55;8.60;;;;;;;20.94;60.61;99096.22;7294613;19;129803;-40
2023/12/30 08:39:40;;;;;;;274.20;10.63;;;;;;;20.96;61.12;99104.75;7293459;19;130241;-38
2023/12/30 08:42:06;;;;;;;172.20;6.15;;;;;;;20.96;61.37;99096.09;7293524;19;132123;-37
2023/12/30 08:44:32;;;;;;;204.65;7.88;;;;;;;20.96;61.14;99104.75;7292304;19;131660;-39
2023/12/30 08:46:57;;;;;;;226.75;8.45;;;;;;;20.95;60.99;99102.28;7294063;19;131050;-40
2023/12/30 08:49:23;;;;;;;226.13;8.50;;;;;;;20.85;60.88;99089.28;7287231;19;132386;-38
2023/12/30 08:51:48;;;;;;;214.53;7.70;;;;;;;21.01;60.78;99110.38;7294309;19;130275;-39
2023/12/30 08:54:13;;;;;;;196.40;7.63;;;;;;;21.00;60.28;99113.97;7291898;19;129282;-41
2023/12/30 08:56:39;;;;;;;184.95;6.63;;;;;;;21.05;60.76;99124.81;7294829;19;130755;-37
2023/12/30 08:59:04;;;;;;;287.20;10.27;;;;;;;21.04;60.41;99128.38;7291606;19;130627;-37
2023/12/30 09:01:30;;;;;;;257.63;10.07;;;;;;;21.02;61.08;99140.81;7291222;19;129674;-40
2023/12/30 09:03:55;;;;;;;148.03;5.33;;;;;;;21.03;60.25;99146.81;7291223;19;131039;-37
2023/12/30 09:06:21;;;;;;;304.98;11.88;;;;;;;21.00;60.72;99142.72;7292216;19;129918;-38
2023/12/30 09:08:46;;;;;;;259.35;9.45;;;;;;;21.01;60.93;99151.38;7293389;19;130275;-39
2023/12/30 09:11:22;;;;;;;208.43;7.37;;;;;;;20.80;60.82;99133.31;7295278;19;130251;-40
2023/12/30 09:13:49;;;;;;;170.82;6.18;;;;;;;20.93;61.30;99152.09;7293192;19;129361;-39
2023/12/30 09:16:15;;;;;;;182.02;6.65;;;;;;;20.95;60.93;99154.56;7290021;19;131823;-41
2023/12/30 09:18:41;;;;;;;274.55;10.00;;;;;;;20.92;60.96;99160.91;7290596;19;130450;-38
2023/12/30 09:21:06;;;;;;;273.70;10.07;;;;;;;20.94;61.11;99158.16;7294012;19;130377;-39
2023/12/30 09:23:32;;;;;;;255.37;9.63;;;;;;;20.76;61.57;99136.38;7291775;19;131146;-40
2023/12/30 09:25:57;;;;;;;206.90;7.60;;;;;;;20.92;61.13;99147.84;7291948;19;129328;-42
2023/12/30 09:28:23;;;;;;;358.17;13.90;;;;;;;20.92;61.11;99150.44;7289702;19;130907;-41
2023/12/30 09:30:48;;;;;;;195.80;7.05;;;;;;;20.90;61.35;99152.38;7292569;19;133273;-38
2023/12/30 09:33:14;;;;;;;233.98;8.65;;;;;;;20.86;61.26;99151.00;7291337;19;130540;-36
2023/12/30 09:35:39;;;;;;;195.47;7.03;;;;;;;20.89;61.32;99149.91;7292264;19;129937;-42
2023/12/30 09:38:04;;;;;;;223.40;7.93;;;;;;;20.85;61.59;99154.59;7289685;19;130290;-40
2023/12/30 09:40:30;;;;;;;247.50;9.38;;;;;;;20.86;61.44;99156.25;7292736;19;131614;-38
2023/12/30 09:43:03;;;;;;;221.80;8.07;;;;;;;20.73;61.70;99134.88;7292238;19;131101;-35
2023/12/30 09:45:28;;;;;;;262.52;9.73;;;;;;;20.86;61.65;99151.00;7290889;19;130462;-40
2023/12/30 09:47:54;;;;;;;318.13;11.63;;;;;;;20.89;61.44;99155.94;7287375;19;131406;-42
2023/12/30 09:50:20;;;;;;;149.00;5.63;;;;;;;20.87;61.36;99151.84;7288648;19;132852;-40
2023/12/30 09:52:45;;;;;;;209.27;7.78;;;;;;;20.85;61.49;99159.84;7292090;19;131370;-39
2023/12/30 09:55:10;;;;;;;155.57;5.75;;;;;;;20.85;62.32;99149.38;7290200;19;129310;-41
2023/12/30 09:57:36;;;;;;;271.08;9.93;;;;;;;20.84;62.16;99150.34;7290325;19;130367;-40
2023/12/30 10:00:05;;;;;;;388.33;14.93;;;;;;;20.84;62.18;99158.16;7287501;19;131379;-36
2023/12/30 10:02:31;;;;;;;263.40;10.30;;;;;;;20.81;61.93;99150.63;7286988;19;129982;-42
2023/12/30 10:04:59;;;;;;;213.48;7.68;;;;;;;20.82;61.86;99149.69;7287505;19;133909;-35
2023/12/30 10:07:24;;;;;;;318.52;11.65;;;;;;;20.81;62.40;99148.00;7291071;19;130322;-40
2023/12/30 10:09:51;;;;;;;252.15;9.70;;;;;;;20.83;61.76;99151.31;7289313;19;130034;-38
2023/12/30 10:12:17;;;;;;;233.27;8.57;;;;;;;20.85;61.62;99143.31;7291255;19;129471;-37
2023/12/30 10:14:42;;;;;;;164.95;5.93;;;;;;;20.84;61.65;99147.72;7290168;19;130891;-41
2023/12/30 10:17:08;;;;;;;290.13;10.48;;;;;;;20.82;61.94;99139.22;7290239;19;131280;-40
2023/12/30 10:19:33;;;;;;;232.43;8.87;;;;;;;20.83;62.11;99143.47;7292886;19;130107;-37
2023/12/30 10:21:58;;;;;;;141.18;5.13;;;;;;;20.82;61.99;99160.13;7291458;19;129602;-36
2023/12/30 10:24:24;;;;;;;164.73;6.00;;;;;;;20.81;62.56;99152.44;7289679;19;129362;-39
2023/12/30 10:26:50;;;;;;;250.60;8.98;;;;;;;20.67;61.56;99130.22;7292969;19;132561;-36
2023/12/30 10:29:15;;;;;;;210.88;7.68;;;;;;;20.83;61.52;99156.53;7287350;19;130494;-38
2023/12/30 10:31:42;;;;;;;187.88;7.03;;;;;;;20.82;61.66;99164.53;7291374;19;129545;-37
2023/12/30 10:34:07;;;;;;;;;;;;;;;20.81;62.63;99163.69;7288997;19;131547;-38
2023/12/30 10:36:33;;;;;;;196.32;7.28;;;;;;;20.83;62.34;99167.00;7290780;19;129875;-37
2023/12/30 10:39:00;;;;;;;221.02;7.95;;;;;;;20.84;62.03;99154.75;7290371;19;130056;-38
2023/12/30 10:41:26;;;;;;;223.10;8.07;;;;;;;20.84;62.09;99171.22;7289341;19;129215;-37
2023/12/30 10:43:52;;;;;;;154.20;5.57;;;;;;;20.78;61.89;99169.22;7289165;19;129151;-38
2023/12/30 10:46:19;;;;;;;257.33;9.48;;;;;;;20.79;62.68;99176.09;7290635;19;130130;-39
2023/12/30 10:49:03;;;;;;;266.25;10.15;;;;;;;20.83;63.02;99184.44;7291243;19;131349;-39
2023/12/30 10:51:32;;;;;;;237.13;8.60;;;;;;;20.80;62.51;99177.72;7290026;19;129514;-35
2023/12/30 10:54:06;;;;;;;203.95;7.57;;;;;;;20.78;61.83;99177.03;7287580;19;129186;-35
2023/12/30 10:56:39;;;;;;;255.02;9.43;;;;;;;20.80;61.98;99171.69;7288373;19;129700;-37
2023/12/30 10:59:06;;;;;;;267.52;9.60;;;;;;;20.81;61.59;99187.19;7287927;19;133182;-38
2023/12/30 11:01:33;;;;;;;240.40;8.93;;;;;;;20.80;61.94;99185.56;7291627;19;130216;-38
2023/12/30 11:04:03;;;;;;;209.18;7.32;;;;;;;20.80;61.54;99180.34;7291137;19;130926;-37